Plain Dealing, Louisiana
Current Conditions -  °F | °C
As of 10:53 AM on Saturday 25 Oct 2014 (Local Time) from KDTN Reporting Station
Clear Clear  
Wind Chill: 72°   Ceiling: Unl
Heat Index: 72°   Visibility: 10mi
Dew Point: 57°   Wind: 7mph
Humidity: 59%   Direction: 250°WSW
Pressure: 30.18"   Gusts: NA
Location:  32.91°N, 93.7°W
Report Text: KDTN 251553Z 25006KT 10SM CLR 22/14 A3018 RMK AO2 SLP217 T02220139
Loading
Personal Weather Stations






























Interactive Weather Map
Tropical Storm Tracking
New forecast layout! Learn more

10-Day Weather Forecast

Advertisements
Track Severe Weather on mobile